Time;durP1;ratioP1;P1;durP2;ratioP2;P2;SDS_P1;SDS_P2;PMS_P1;PMS_P2;Temp;Humidity;BMP_temperature;BMP_pressure;BME280_temperature;BME280_humidity;BME280_pressure;Samples;Min_cycle;Max_cycle;Signal;HPM_P1;HPM_P2
2022/09/01 00:01:14;;;;;;;1.43;0.90;;;19.10;86.30;;;;;;6119909;23;20452;-80
2022/09/01 00:03:42;;;;;;;1.43;0.90;;;19.00;87.10;;;;;;6124412;23;20497;-77
2022/09/01 00:06:10;;;;;;;1.50;0.90;;;19.00;86.40;;;;;;6116548;23;20446;-78
2022/09/01 00:08:37;;;;;;;1.47;0.90;;;19.00;86.40;;;;;;6124178;23;20452;-78
2022/09/01 00:11:04;;;;;;;1.50;1.00;;;19.00;86.70;;;;;;6110692;23;20422;-79
2022/09/01 00:13:33;;;;;;;1.50;0.90;;;19.00;87.10;;;;;;6134631;23;20421;-77
2022/09/01 00:16:02;;;;;;;1.40;0.90;;;18.90;87.00;;;;;;6109465;23;20473;-77
2022/09/01 00:18:31;;;;;;;1.40;0.90;;;19.00;86.80;;;;;;6125156;23;20445;-77
2022/09/01 00:20:59;;;;;;;1.43;0.90;;;18.90;86.80;;;;;;6119965;23;20414;-76
2022/09/01 00:23:26;;;;;;;1.50;1.00;;;19.00;87.00;;;;;;6133256;23;20908;-77
2022/09/01 00:25:54;;;;;;;1.50;0.90;;;18.90;87.60;;;;;;6110290;23;20442;-78
2022/09/01 00:28:21;;;;;;;1.47;0.90;;;18.90;87.20;;;;;;6123114;23;20469;-77
2022/09/01 00:30:50;;;;;;;1.60;1.20;;;18.90;87.20;;;;;;6120785;23;20418;-77
2022/09/01 00:33:17;;;;;;;1.50;0.90;;;18.90;87.40;;;;;;6123844;23;20421;-77
2022/09/01 00:35:45;;;;;;;1.50;0.93;;;18.80;87.30;;;;;;6125941;23;20422;-77
2022/09/01 00:38:12;;;;;;;1.50;1.00;;;18.80;87.40;;;;;;6112497;23;20791;-78
2022/09/01 00:40:39;;;;;;;1.50;0.90;;;18.80;87.30;;;;;;6124605;23;20445;-77
2022/09/01 00:43:14;;;;;;;1.47;0.90;;;18.70;87.80;;;;;;6106910;23;20452;-79
2022/09/01 00:45:42;;;;;;;1.47;0.90;;;18.70;88.20;;;;;;6124925;23;20486;-78
2022/09/01 00:48:12;;;;;;;1.43;0.90;;;18.60;88.40;;;;;;6110187;23;20453;-77
2022/09/01 00:50:39;;;;;;;1.50;0.90;;;18.60;88.70;;;;;;6135213;23;20422;-77
2022/09/01 00:53:08;;;;;;;1.43;0.90;;;18.50;88.80;;;;;;6109353;23;20552;-77
2022/09/01 00:55:38;;;;;;;1.50;0.90;;;18.50;88.80;;;;;;6124248;23;20418;-77
2022/09/01 00:58:07;;;;;;;1.47;0.90;;;18.50;88.20;;;;;;6111050;23;20477;-77
2022/09/01 01:00:39;;;;;;;1.40;0.90;;;18.50;88.40;;;;;;6135187;23;20457;-78
2022/09/01 01:03:08;;;;;;;1.47;0.90;;;18.40;88.50;;;;;;6109660;23;20795;-77
2022/09/01 01:05:40;;;;;;;1.47;1.00;;;18.40;88.60;;;;;;6124143;23;20956;-77
2022/09/01 01:08:10;;;;;;;1.50;0.90;;;18.30;88.80;;;;;;6110576;23;20512;-78
2022/09/01 01:11:16;;;;;;;1.47;0.90;;;18.30;89.10;;;;;;6128242;23;20410;-77
2022/09/01 01:13:54;;;;;;;1.50;1.00;;;18.30;89.50;;;;;;6101790;23;20433;-77
2022/09/01 01:16:23;;;;;;;1.40;0.90;;;18.20;89.70;;;;;;6120740;23;20449;-78
2022/09/01 01:18:52;;;;;;;1.50;0.90;;;18.20;89.90;;;;;;6127037;23;20436;-77
2022/09/01 01:24:23;;;;;;;1.50;1.00;;;18.10;90.20;;;;;;6126598;23;20396;-77
2022/09/01 01:26:51;;;;;;;1.50;1.00;;;18.10;90.00;;;;;;6118533;23;20445;-77
2022/09/01 01:29:19;;;;;;;1.50;0.90;;;18.10;90.10;;;;;;6130738;23;20480;-78
2022/09/01 01:31:52;;;;;;;1.47;0.90;;;18.10;90.60;;;;;;6114616;23;20445;-77
2022/09/01 01:34:27;;;;;;;1.47;1.00;;;18.10;90.40;;;;;;6116082;23;20406;-78
2022/09/01 01:36:58;;;;;;;1.47;0.90;;;18.10;90.80;;;;;;6087759;23;20434;-79
2022/09/01 01:39:27;;;;;;;1.50;1.00;;;18.10;91.20;;;;;;6097877;23;20536;-78
2022/09/01 01:41:57;;;;;;;1.50;1.00;;;18.10;90.90;;;;;;6102409;23;20449;-78
2022/09/01 01:44:27;;;;;;;1.40;0.90;;;18.10;90.70;;;;;;6116533;23;20415;-79
2022/09/01 01:46:56;;;;;;;1.40;0.90;;;18.10;90.10;;;;;;6095734;23;20449;-78
2022/09/01 01:49:27;;;;;;;1.40;0.90;;;18.10;90.70;;;;;;6089490;23;20434;-78
2022/09/01 01:51:56;;;;;;;1.47;1.00;;;18.00;91.10;;;;;;6082159;23;20480;-79
2022/09/01 01:54:25;;;;;;;1.43;0.90;;;18.00;91.10;;;;;;6087182;23;20640;-78
2022/09/01 01:56:56;;;;;;;1.40;0.90;;;18.00;91.10;;;;;;6085718;23;20520;-78
2022/09/01 01:59:23;;;;;;;1.47;0.90;;;18.00;91.50;;;;;;6096403;23;21026;-78
2022/09/01 02:01:51;;;;;;;1.50;1.00;;;18.00;91.70;;;;;;6086347;23;20449;-79
2022/09/01 02:04:19;;;;;;;1.47;1.00;;;18.00;91.50;;;;;;6089591;23;20419;-79
2022/09/01 02:06:47;;;;;;;1.43;0.90;;;18.00;91.20;;;;;;6077374;23;20477;-79
2022/09/01 02:09:17;;;;;;;1.50;0.90;;;18.00;91.40;;;;;;6092087;23;20993;-79
2022/09/01 02:11:44;;;;;;;1.40;0.93;;;18.00;91.40;;;;;;6082768;23;20851;-78
2022/09/01 02:14:14;;;;;;;1.43;0.90;;;17.90;91.70;;;;;;6097903;23;20419;-78
2022/09/01 02:16:43;;;;;;;1.50;1.00;;;18.00;91.70;;;;;;6077828;23;20446;-80
2022/09/01 02:19:11;;;;;;;1.50;0.90;;;17.90;91.50;;;;;;6093420;23;20478;-79
2022/09/01 02:21:48;;;;;;;1.50;1.00;;;17.90;91.60;;;;;;6076003;23;20795;-79
2022/09/01 02:24:16;;;;;;;1.40;0.90;;;17.90;91.40;;;;;;6090099;23;20899;-80
2022/09/01 02:26:47;;;;;;;1.47;0.97;;;17.90;91.60;;;;;;6076057;23;20450;-79
2022/09/01 02:29:19;;;;;;;1.47;0.90;;;17.80;92.00;;;;;;6098095;23;20427;-78
2022/09/01 02:31:48;;;;;;;1.50;1.00;;;17.80;92.00;;;;;;6076343;23;20454;-79
2022/09/01 02:34:16;;;;;;;1.50;0.90;;;17.80;91.80;;;;;;6088041;23;20455;-78
2022/09/01 02:36:47;;;;;;;1.50;0.90;;;17.80;91.70;;;;;;6076209;23;20455;-79
2022/09/01 02:39:15;;;;;;;1.50;1.00;;;17.80;92.50;;;;;;6091453;23;20408;-79
2022/09/01 02:41:43;;;;;;;1.47;0.90;;;17.70;92.70;;;;;;6076999;23;21023;-78
2022/09/01 02:44:11;;;;;;;1.40;1.00;;;17.70;92.20;;;;;;6103622;23;20420;-78
2022/09/01 02:46:41;;;;;;;1.50;0.90;;;17.70;92.30;;;;;;6080924;23;20450;-79
2022/09/01 02:49:14;;;;;;;1.43;1.00;;;17.70;92.30;;;;;;6094848;23;20408;-79
2022/09/01 02:51:42;;;;;;;1.43;1.00;;;17.70;92.30;;;;;;6081933;23;20445;-78
2022/09/01 02:54:14;;;;;;;1.43;1.00;;;17.80;92.10;;;;;;6094152;23;20434;-78
2022/09/01 02:56:41;;;;;;;1.47;0.90;;;17.80;92.00;;;;;;6081431;23;20824;-77
2022/09/01 02:59:11;;;;;;;1.50;0.90;;;17.80;91.90;;;;;;6093542;23;20434;-77
2022/09/01 03:01:40;;;;;;;1.47;0.90;;;17.80;92.10;;;;;;6075058;23;20504;-78
2022/09/01 03:04:09;;;;;;;1.50;1.00;;;17.70;92.10;;;;;;6093794;23;20428;-79
2022/09/01 03:06:37;;;;;;;1.47;0.90;;;17.70;91.90;;;;;;6075103;23;20449;-79
2022/09/01 03:09:07;;;;;;;1.47;0.90;;;17.70;91.70;;;;;;6106424;23;20447;-78
2022/09/01 03:11:38;;;;;;;1.50;0.90;;;17.70;91.80;;;;;;6073876;23;20449;-78
2022/09/01 03:14:06;;;;;;;1.43;0.90;;;17.70;91.40;;;;;;6094804;23;20408;-78
2022/09/01 03:16:35;;;;;;;1.50;1.00;;;17.70;91.60;;;;;;6073445;23;20456;-78
2022/09/01 03:19:06;;;;;;;1.47;0.90;;;17.70;91.90;;;;;;6105613;23;20824;-79
2022/09/01 03:21:33;;;;;;;1.50;1.00;;;17.70;91.70;;;;;;6072889;23;20457;-79
2022/09/01 03:24:02;;;;;;;1.47;0.90;;;17.70;91.90;;;;;;6096696;23;20430;-78
2022/09/01 03:26:31;;;;;;;1.50;0.97;;;17.70;92.00;;;;;;6072336;23;20449;-78
2022/09/01 03:28:59;;;;;;;1.50;1.00;;;17.70;92.50;;;;;;6106326;23;20487;-78
2022/09/01 03:31:27;;;;;;;1.47;0.90;;;17.70;92.60;;;;;;6069339;23;20461;-79
2022/09/01 03:33:55;;;;;;;1.50;0.90;;;17.70;92.10;;;;;;6105519;23;20475;-78
2022/09/01 03:36:28;;;;;;;1.43;0.90;;;17.70;92.20;;;;;;6066955;23;20446;-78
2022/09/01 03:38:56;;;;;;;1.50;0.93;;;17.70;92.20;;;;;;6098318;23;20471;-78
2022/09/01 03:41:27;;;;;;;1.47;0.90;;;17.70;92.60;;;;;;6076550;23;20972;-78
2022/09/01 03:43:56;;;;;;;1.43;1.00;;;17.70;92.80;;;;;;6107327;23;20415;-78
2022/09/01 03:46:25;;;;;;;1.47;0.90;;;17.70;92.30;;;;;;6065828;23;20462;-78
2022/09/01 03:48:57;;;;;;;1.40;0.90;;;17.70;92.50;;;;;;6106781;23;20420;-78
2022/09/01 03:51:27;;;;;;;1.50;1.00;;;17.70;92.70;;;;;;6075058;23;20449;-79
2022/09/01 03:53:56;;;;;;;1.50;1.00;;;17.60;92.30;;;;;;6096989;23;20427;-79
2022/09/01 03:56:27;;;;;;;1.50;1.00;;;17.60;92.10;;;;;;6067929;23;21067;-78
2022/09/01 03:58:56;;;;;;;1.47;1.00;;;17.60;92.70;;;;;;6107547;23;20777;-78
2022/09/01 04:01:23;;;;;;;1.50;1.00;;;17.60;92.40;;;;;;6067852;23;20509;-78
2022/09/01 04:03:51;;;;;;;1.47;0.90;;;17.60;92.80;;;;;;6097745;23;20483;-79
2022/09/01 04:06:22;;;;;;;1.50;1.00;;;17.50;92.90;;;;;;6071703;23;20446;-78
2022/09/01 04:08:55;;;;;;;1.50;1.00;;;17.50;92.90;;;;;;6109114;23;20459;-78
2022/09/01 04:11:22;;;;;;;1.47;0.90;;;17.50;92.90;;;;;;6065174;23;20453;-78
2022/09/01 04:13:51;;;;;;;1.50;0.90;;;17.50;93.10;;;;;;6108496;23;20423;-78
2022/09/01 04:19:35;;;;;;;1.50;0.90;;;17.40;93.70;;;;;;6109244;23;20395;-79
2022/09/01 04:22:16;;;;;;;1.47;1.00;;;17.40;92.90;;;;;;6099465;23;20428;-78
2022/09/01 04:25:25;;;;;;;1.47;1.00;;;17.40;93.30;;;;;;6073331;23;20420;-79
2022/09/01 04:28:28;;;;;;;1.50;1.00;;;17.40;93.00;;;;;;6109136;23;20509;-78
2022/09/01 04:31:41;;;;;;;1.50;0.90;;;17.40;93.00;;;;;;6091857;23;20432;-78
2022/09/01 04:34:15;;;;;;;1.50;0.90;;;17.30;93.20;;;;;;6087013;23;20434;-78
2022/09/01 04:36:44;;;;;;;1.40;0.90;;;17.30;93.30;;;;;;6087186;23;20427;-78
2022/09/01 04:45:11;;;;;;;1.50;1.00;;;17.20;93.00;;;;;;6035217;23;20458;-78
2022/09/01 04:47:44;;;;;;;1.50;1.00;;;17.10;93.60;;;;;;6027110;23;20453;-78
2022/09/01 04:50:43;;;;;;;1.43;1.00;;;17.10;93.60;;;;;;6026310;23;20429;-78
2022/09/01 04:53:48;;;;;;;1.50;0.97;;;17.00;93.10;;;;;;6005495;23;20476;-78
2022/09/01 04:56:37;;;;;;;1.50;1.00;;;17.00;93.50;;;;;;6004229;23;20466;-79
2022/09/01 04:59:07;;;;;;;1.50;0.90;;;17.00;93.70;;;;;;6049210;23;20504;-78
2022/09/01 05:08:23;;;;;;;1.50;1.00;;;16.90;93.90;;;;;;5985273;23;20489;-78
2022/09/01 05:10:55;;;;;;;1.50;1.00;;;16.90;93.90;;;;;;6039674;23;20429;-77
2022/09/01 05:13:26;;;;;;;1.50;0.90;;;16.90;94.60;;;;;;6081513;23;21156;-77
2022/09/01 05:16:11;;;;;;;1.50;1.00;;;16.90;94.20;;;;;;6065917;23;20407;-77
2022/09/01 05:18:41;;;;;;;1.47;1.00;;;16.90;94.80;;;;;;6093629;23;20447;-77
2022/09/01 05:21:10;;;;;;;1.50;0.90;;;16.90;94.20;;;;;;6073776;23;20838;-77
2022/09/01 05:24:03;;;;;;;;;;;;;;;;;;;;;
2022/09/01 05:26:33;;;;;;;1.47;0.90;;;16.90;94.20;;;;;;6075316;23;20455;-77
2022/09/01 05:29:03;;;;;;;1.50;1.00;;;16.90;94.40;;;;;;6084777;23;20603;-76
2022/09/01 05:31:36;;;;;;;1.47;1.00;;;17.00;94.40;;;;;;6072794;23;20550;-77
2022/09/01 05:34:08;;;;;;;1.47;0.90;;;17.00;94.60;;;;;;6086410;23;20440;-76
2022/09/01 05:36:58;;;;;;;1.50;0.90;;;17.10;94.80;;;;;;6071333;23;20478;-76
2022/09/01 05:39:26;;;;;;;1.47;1.00;;;17.10;94.60;;;;;;6080947;23;20440;-80
2022/09/01 05:41:56;;;;;;;1.50;0.90;;;17.20;94.40;;;;;;6070618;23;20458;-76
2022/09/01 05:44:23;;;;;;;1.50;1.00;;;17.20;94.70;;;;;;6084628;23;20442;-77
2022/09/01 05:47:20;;;;;;;1.50;1.00;;;17.30;94.70;;;;;;6061015;23;20867;-77
2022/09/01 05:49:49;;;;;;;1.50;0.93;;;17.40;94.90;;;;;;6068089;23;20423;-77
2022/09/01 05:52:35;;;;;;;1.50;1.00;;;17.50;94.50;;;;;;6068496;23;20455;-78
2022/09/01 05:55:03;;;;;;;1.50;1.00;;;17.60;93.80;;;;;;6085933;23;20462;-76
2022/09/01 05:57:41;;;;;;;1.47;0.90;;;17.70;93.30;;;;;;6078127;23;20460;-76
2022/09/01 06:00:21;;;;;;;1.47;0.90;;;17.70;93.00;;;;;;6085036;23;20427;-75
2022/09/01 06:02:52;;;;;;;1.50;0.90;;;17.80;92.90;;;;;;6078207;23;20450;-76
2022/09/01 06:05:38;;;;;;;1.47;0.90;;;17.80;92.60;;;;;;6074960;23;20470;-77
2022/09/01 06:11:17;;;;;;;1.47;0.90;;;17.90;92.30;;;;;;6019125;23;20424;-77
2022/09/01 06:14:07;;;;;;;1.50;1.00;;;17.90;92.40;;;;;;6068373;23;20420;-77
2022/09/01 06:16:55;;;;;;;1.50;0.90;;;17.90;92.70;;;;;;6077400;23;20478;-78
2022/09/01 06:19:43;;;;;;;1.47;1.00;;;17.90;92.90;;;;;;6097971;23;20427;-76
2022/09/01 06:22:55;;;;;;;1.47;1.00;;;17.90;92.80;;;;;;6073657;23;20948;-77
2022/09/01 06:25:55;;;;;;;1.47;1.00;;;17.90;93.00;;;;;;6075206;23;20486;-79
2022/09/01 06:29:14;;;;;;;1.50;0.97;;;17.90;92.70;;;;;;6054084;23;20470;-78
2022/09/01 06:31:50;;;;;;;1.50;1.00;;;18.00;93.60;;;;;;6047584;23;20522;-77
2022/09/01 06:34:34;;;;;;;1.43;0.90;;;18.30;93.30;;;;;;6081027;23;20413;-77
2022/09/01 06:40:57;;;;;;;1.47;0.90;;;18.80;92.40;;;;;;6033844;23;20841;-77
2022/09/01 06:46:34;;;;;;;1.50;0.90;;;19.70;89.50;;;;;;6057576;23;20529;-76
2022/09/01 06:49:10;;;;;;;1.50;0.90;;;19.90;87.40;;;;;;6099501;23;20439;-77
2022/09/01 06:51:38;;;;;;;1.50;0.90;;;20.00;87.30;;;;;;6077742;23;20474;-77
2022/09/01 06:54:06;;;;;;;1.47;0.90;;;20.20;85.90;;;;;;6089534;23;20488;-77
2022/09/01 06:56:37;;;;;;;1.50;1.00;;;20.40;86.30;;;;;;6069551;23;20860;-77
2022/09/01 06:59:08;;;;;;;1.50;0.90;;;20.70;86.60;;;;;;6102332;23;20431;-78
2022/09/01 07:01:40;;;;;;;1.47;0.90;;;20.90;85.30;;;;;;6079896;23;20883;-78
2022/09/01 07:04:10;;;;;;;1.50;0.90;;;21.10;83.40;;;;;;6100916;23;20431;-77
2022/09/01 07:06:51;;;;;;;1.47;0.90;;;21.20;83.90;;;;;;6077706;23;20451;-77
2022/09/01 07:09:29;;;;;;;1.50;1.00;;;21.30;82.10;;;;;;6095402;23;20792;-76
2022/09/01 07:12:07;;;;;;;1.50;1.00;;;21.60;81.40;;;;;;6075773;23;20454;-79
2022/09/01 07:14:36;;;;;;;1.47;0.90;;;21.80;80.40;;;;;;6080389;23;20408;-76
2022/09/01 07:17:06;;;;;;;1.47;0.90;;;21.80;79.60;;;;;;6078161;23;20511;-81
2022/09/01 07:19:47;;;;;;;1.43;0.90;;;22.00;79.70;;;;;;6091840;23;20427;-77
2022/09/01 07:22:46;;;;;;;1.50;0.90;;;22.20;79.10;;;;;;6079861;23;20915;-78
2022/09/01 07:25:19;;;;;;;1.60;1.20;;;22.40;77.90;;;;;;6088250;23;20526;-78
2022/09/01 07:27:49;;;;;;;1.50;0.90;;;22.50;77.50;;;;;;6084440;23;20586;-79
2022/09/01 07:30:25;;;;;;;1.50;0.90;;;22.60;76.90;;;;;;6075774;23;20422;-79
2022/09/01 07:32:56;;;;;;;1.40;0.90;;;22.80;77.00;;;;;;6082320;23;20450;-78
2022/09/01 07:35:31;;;;;;;1.50;0.90;;;22.90;76.50;;;;;;6084450;23;20431;-77
2022/09/01 07:38:18;;;;;;;1.40;0.90;;;23.10;76.20;;;;;;6007809;23;21001;-78
2022/09/01 07:47:00;;;;;;;1.47;0.90;;;23.70;75.20;;;;;;6063511;23;20476;-78
2022/09/01 07:49:30;;;;;;;1.47;0.80;;;23.60;73.70;;;;;;6096942;23;20438;-80
2022/09/01 07:55:00;;;;;;;1.47;0.90;;;23.80;74.60;;;;;;6074160;23;20427;-77
2022/09/01 07:57:33;;;;;;;1.47;0.90;;;24.00;73.40;;;;;;6084070;23;20453;-78
2022/09/01 08:00:11;;;;;;;1.60;1.10;;;24.10;71.50;;;;;;6089855;23;20424;-79
2022/09/01 08:02:45;;;;;;;1.50;0.90;;;24.10;73.00;;;;;;6085180;23;20481;-78
2022/09/01 08:05:31;;;;;;;1.50;0.90;;;24.30;72.50;;;;;;6086281;23;20419;-77
2022/09/01 08:07:59;;;;;;;1.47;0.80;;;24.20;72.20;;;;;;6083774;23;20451;-77
2022/09/01 08:10:38;;;;;;;1.50;0.80;;;24.40;72.30;;;;;;6086895;23;20442;-79
2022/09/01 08:13:10;;;;;;;1.47;0.90;;;24.50;71.00;;;;;;6084544;23;20556;-80
2022/09/01 08:22:04;;;;;;;1.43;0.90;;;24.40;70.90;;;;;;6036835;23;20502;-78
2022/09/01 08:24:51;;;;;;;1.50;0.90;;;24.50;71.70;;;;;;6083157;23;20423;-78
2022/09/01 08:27:20;;;;;;;1.47;0.87;;;24.60;69.40;;;;;;6084988;23;20446;-76
2022/09/01 08:30:08;;;;;;;1.47;0.80;;;24.70;69.80;;;;;;6083145;23;20431;-78
2022/09/01 08:32:51;;;;;;;1.50;0.80;;;25.00;70.00;;;;;;6084620;23;20478;-78
2022/09/01 08:42:45;;;;;;;1.50;0.90;;;25.70;68.70;;;;;;5974176;23;20482;-78
2022/09/01 08:45:55;;;;;;;1.47;0.90;;;25.90;66.30;;;;;;5997581;24;20422;-79
2022/09/01 08:48:30;;;;;;;1.40;0.80;;;26.10;64.80;;;;;;5949842;24;20450;-76
2022/09/01 08:51:26;;;;;;;1.43;0.83;;;25.80;62.20;;;;;;5979895;23;20454;-78
2022/09/01 09:00:22;;;;;;;1.43;0.80;;;26.20;60.80;;;;;;6078428;23;20423;-77
2022/09/01 09:03:10;;;;;;;1.50;0.87;;;26.30;60.20;;;;;;6013826;23;20480;-78
2022/09/01 09:06:15;;;;;;;1.50;0.80;;;26.40;57.90;;;;;;6062457;23;20431;-78
2022/09/01 09:09:02;;;;;;;1.50;0.80;;;26.50;59.60;;;;;;6056077;23;20453;-78
2022/09/01 09:11:53;;;;;;;1.43;0.87;;;26.70;58.50;;;;;;6065001;23;20450;-79
2022/09/01 09:14:33;;;;;;;1.43;0.90;;;26.70;59.80;;;;;;6078663;23;20459;-76
2022/09/01 09:17:03;;;;;;;1.43;0.80;;;26.70;58.60;;;;;;6069021;23;20824;-78
2022/09/01 09:19:32;;;;;;;1.40;0.80;;;26.60;58.70;;;;;;6088169;23;20431;-77
2022/09/01 09:22:09;;;;;;;1.47;0.90;;;26.80;59.50;;;;;;6068566;23;20473;-77
2022/09/01 09:24:49;;;;;;;1.40;0.83;;;26.80;59.00;;;;;;6086451;23;20411;-79
2022/09/01 09:27:24;;;;;;;1.47;0.90;;;26.70;59.50;;;;;;6074379;23;20446;-78
2022/09/01 09:29:54;;;;;;;1.43;0.90;;;26.90;59.30;;;;;;6082738;23;20933;-76
2022/09/01 09:32:43;;;;;;;1.40;0.80;;;26.60;58.70;;;;;;6078330;23;20465;-77
2022/09/01 09:35:21;;;;;;;1.50;0.80;;;26.70;59.50;;;;;;6068706;23;20407;-79
2022/09/01 09:38:27;;;;;;;1.50;0.80;;;26.90;59.20;;;;;;6078813;23;20961;-77
2022/09/01 09:41:17;;;;;;;1.43;0.90;;;27.10;58.70;;;;;;6076060;23;20454;-76
2022/09/01 09:43:49;;;;;;;1.47;0.80;;;27.50;57.90;;;;;;6105926;23;20423;-78
2022/09/01 09:49:58;;;;;;;;;;;;;;;;;;;;;
2022/09/01 09:53:35;;;;;;;1.50;0.80;;;27.90;57.20;;;;;;6082151;23;20454;-77
2022/09/01 09:56:27;;;;;;;1.47;0.80;;;27.90;56.20;;;;;;5983648;23;20457;-77
2022/09/01 09:59:03;;;;;;;1.43;0.80;;;28.20;56.10;;;;;;5994804;23;20429;-77
2022/09/01 10:01:32;;;;;;;1.50;0.80;;;28.10;55.40;;;;;;6050279;23;20460;-79
2022/09/01 10:04:05;;;;;;;1.90;1.60;;;28.10;56.80;;;;;;6083192;23;20433;-78
2022/09/01 10:06:36;;;;;;;1.40;0.83;;;28.20;55.90;;;;;;6071615;23;20450;-78
2022/09/01 10:09:08;;;;;;;1.50;1.00;;;28.20;55.10;;;;;;6082223;23;20802;-77
2022/09/01 10:11:45;;;;;;;1.43;0.80;;;28.00;56.30;;;;;;6062204;23;21109;-79
2022/09/01 10:14:30;;;;;;;1.43;0.80;;;28.10;56.00;;;;;;6087668;23;20455;-77
2022/09/01 10:17:12;;;;;;;1.40;0.80;;;28.20;56.10;;;;;;6062164;23;20997;-78
2022/09/01 10:19:50;;;;;;;1.50;1.10;;;28.40;55.50;;;;;;6084721;23;20921;-77
2022/09/01 10:25:10;;;;;;;1.47;0.80;;;28.30;55.10;;;;;;6061175;23;20427;-77
2022/09/01 10:27:42;;;;;;;1.40;0.80;;;28.40;56.30;;;;;;6073593;23;21044;-77
2022/09/01 10:30:14;;;;;;;1.43;0.80;;;28.40;56.60;;;;;;6077480;23;20426;-77
2022/09/01 10:32:45;;;;;;;1.40;0.80;;;28.80;55.70;;;;;;6075938;23;21121;-78
2022/09/01 10:35:20;;;;;;;1.40;0.80;;;28.80;54.90;;;;;;6069674;23;20412;-79
2022/09/01 10:37:50;;;;;;;1.47;0.80;;;29.00;56.50;;;;;;6082022;23;20454;-77
2022/09/01 10:40:37;;;;;;;1.47;0.80;;;29.30;54.70;;;;;;6087436;23;20445;-78
2022/09/01 10:43:48;;;;;;;1.47;0.80;;;29.30;55.40;;;;;;6073146;23;20465;-77
2022/09/01 10:46:43;;;;;;;1.70;1.00;;;29.50;55.70;;;;;;6076752;23;20441;-77
2022/09/01 10:49:45;;;;;;;1.43;0.80;;;29.90;54.30;;;;;;6098025;23;20486;-77
2022/09/01 10:52:52;;;;;;;1.40;0.80;;;29.90;53.90;;;;;;6069053;23;20460;-78
2022/09/01 10:56:14;;;;;;;1.47;0.80;;;30.30;54.80;;;;;;6088712;23;20766;-78
2022/09/01 11:02:56;;;;;;;1.40;0.80;;;29.70;52.50;;;;;;6066480;23;20453;-78
2022/09/01 11:05:29;;;;;;;1.40;0.80;;;29.60;52.90;;;;;;6077691;23;20490;-78
2022/09/01 11:11:23;;;;;;;1.43;0.80;;;30.00;53.80;;;;;;6067994;23;20786;-78
2022/09/01 11:14:26;;;;;;;1.50;0.80;;;30.50;53.60;;;;;;6048584;23;20435;-77
2022/09/01 11:17:27;;;;;;;1.40;0.80;;;30.70;52.10;;;;;;6073984;23;20506;-77
2022/09/01 11:20:02;;;;;;;1.43;0.80;;;30.60;53.50;;;;;;6057685;23;20478;-78
2022/09/01 11:32:43;;;;;;;1.40;0.80;;;30.90;52.00;;;;;;5988587;23;20458;-77
2022/09/01 11:48:32;;;;;;;1.47;0.80;;;30.90;52.50;;;;;;5879110;24;20470;-77
2022/09/01 11:51:17;;;;;;;1.40;0.80;;;31.10;53.20;;;;;;6013398;23;20492;-78
2022/09/01 11:56:51;;;;;;;1.40;0.80;;;30.30;52.40;;;;;;5987709;23;20453;-77
2022/09/01 12:05:52;;;;;;;1.40;0.80;;;29.90;55.80;;;;;;6083548;23;20867;-77
2022/09/01 12:08:45;;;;;;;1.43;0.80;;;30.40;54.30;;;;;;6063967;23;20451;-77
2022/09/01 12:15:10;;;;;;;1.40;0.80;;;31.00;54.10;;;;;;6044533;23;20434;-78
2022/09/01 12:18:28;;;;;;;1.43;0.80;;;30.90;52.70;;;;;;5984164;23;20448;-78
2022/09/01 12:21:17;;;;;;;1.40;0.80;;;31.00;52.50;;;;;;5927791;24;20620;-77
2022/09/01 12:24:24;;;;;;;1.50;1.00;;;31.10;52.70;;;;;;6022282;23;20425;-78
2022/09/01 12:26:56;;;;;;;1.40;0.80;;;31.30;53.20;;;;;;6002833;23;20456;-78
2022/09/01 12:29:45;;;;;;;1.40;0.80;;;31.50;53.50;;;;;;6024481;23;20439;-77
2022/09/01 12:35:20;;;;;;;1.43;0.80;;;31.50;51.30;;;;;;6010451;23;20979;-78
2022/09/01 12:38:22;;;;;;;1.43;0.80;;;30.80;52.40;;;;;;6003711;23;20483;-78
2022/09/01 12:45:04;;;;;;;1.70;1.10;;;31.00;52.90;;;;;;6007519;23;20419;-77
2022/09/01 12:51:39;;;;;;;1.43;0.80;;;30.70;52.00;;;;;;5916292;24;20550;-78
2022/09/01 12:54:16;;;;;;;1.50;1.20;;;30.40;53.30;;;;;;5968488;23;20429;-78
2022/09/01 13:03:28;;;;;;;;;;;;;;;;;;;;;
2022/09/01 13:06:17;;;;;;;1.43;0.80;;;28.50;55.60;;;;;;5953622;24;20425;-78
2022/09/01 13:09:09;;;;;;;1.43;0.80;;;28.10;56.10;;;;;;6103168;23;20475;-77
2022/09/01 13:12:01;;;;;;;1.47;0.80;;;27.80;56.90;;;;;;6077870;23;20474;-76
2022/09/01 13:37:13;;;;;;;1.47;0.80;;;28.70;57.80;;;;;;5986862;23;20563;-78
2022/09/01 13:40:13;;;;;;;;;;;;;;;;;;;;;
2022/09/01 13:42:44;;;;;;;1.47;0.80;;;29.00;56.60;;;;;;6082371;23;20453;-77
2022/09/01 13:49:56;;;;;;;1.40;0.80;;;29.00;55.80;;;;;;6061619;23;20529;-76
2022/09/01 13:58:14;;;;;;;1.40;0.80;;;28.50;56.30;;;;;;6042997;23;20454;-79
2022/09/01 14:00:49;;;;;;;1.40;0.80;;;28.30;57.20;;;;;;6086223;23;20425;-78
2022/09/01 14:03:33;;;;;;;1.40;0.80;;;28.40;57.40;;;;;;6031971;23;20435;-78
2022/09/01 14:06:45;;;;;;;1.40;0.90;;;28.40;57.00;;;;;;6039893;23;20456;-77
2022/09/01 14:09:53;;;;;;;1.50;0.90;;;28.30;58.00;;;;;;5996022;24;20483;-78
2022/09/01 14:12:53;;;;;;;1.43;0.90;;;28.20;57.50;;;;;;6019393;23;20518;-78
2022/09/01 14:15:24;;;;;;;1.47;0.80;;;28.00;57.30;;;;;;6074283;23;21208;-78
2022/09/01 14:17:57;;;;;;;1.90;1.20;;;28.00;57.70;;;;;;6086234;23;20500;-77
2022/09/01 14:23:32;;;;;;;1.40;0.80;;;28.10;57.50;;;;;;6045384;23;20482;-78
2022/09/01 14:26:22;;;;;;;1.47;0.90;;;28.30;57.30;;;;;;6073417;23;20454;-78
2022/09/01 14:29:01;;;;;;;1.50;0.80;;;28.80;57.60;;;;;;6103515;23;20513;-77
2022/09/01 14:31:30;;;;;;;1.40;0.80;;;29.10;56.50;;;;;;6073978;23;20895;-77
2022/09/01 14:33:58;;;;;;;1.40;0.80;;;29.10;56.30;;;;;;6078576;23;20453;-76
2022/09/01 14:36:30;;;;;;;1.43;0.80;;;29.10;55.20;;;;;;6059754;23;20486;-77
2022/09/01 14:38:58;;;;;;;1.50;1.00;;;28.80;56.20;;;;;;6093831;23;20495;-77
2022/09/01 14:41:26;;;;;;;1.40;0.80;;;28.60;57.30;;;;;;6063662;23;20454;-75
2022/09/01 14:43:57;;;;;;;1.43;0.80;;;28.50;56.80;;;;;;6087474;23;20582;-76
2022/09/01 14:46:25;;;;;;;1.43;0.80;;;28.30;57.60;;;;;;6061334;23;20450;-76
2022/09/01 14:48:52;;;;;;;1.40;0.80;;;28.20;57.00;;;;;;6088026;23;20451;-76
2022/09/01 14:51:22;;;;;;;1.47;0.80;;;28.00;57.30;;;;;;6062150;23;20461;-77
2022/09/01 14:53:50;;;;;;;1.43;0.80;;;28.10;58.60;;;;;;6088177;23;20454;-77
2022/09/01 14:56:18;;;;;;;1.40;0.80;;;28.30;57.20;;;;;;6063976;23;20450;-77
2022/09/01 14:58:47;;;;;;;1.40;0.80;;;28.40;56.80;;;;;;6090708;23;20450;-77
2022/09/01 15:01:19;;;;;;;1.40;0.80;;;28.40;56.60;;;;;;6056642;23;20532;-78
2022/09/01 15:03:48;;;;;;;1.40;0.80;;;28.50;56.70;;;;;;6090201;23;20448;-79
2022/09/01 15:06:17;;;;;;;1.40;0.80;;;28.30;56.30;;;;;;6062830;23;20457;-78
2022/09/01 15:08:45;;;;;;;1.47;0.80;;;28.10;55.80;;;;;;6091353;23;20510;-77
2022/09/01 15:11:33;;;;;;;;;;;;;;;;;;;;;
2022/09/01 15:14:00;;;;;;;1.40;0.80;;;27.50;57.80;;;;;;6093307;23;20513;-78
2022/09/01 15:16:29;;;;;;;1.50;0.80;;;27.40;58.40;;;;;;6068829;23;20486;-76
2022/09/01 15:18:57;;;;;;;1.43;0.80;;;27.30;58.90;;;;;;6084437;23;20728;-79
2022/09/01 15:21:32;;;;;;;1.40;0.90;;;27.30;58.80;;;;;;6072272;23;20450;-78
2022/09/01 15:24:00;;;;;;;1.43;0.90;;;27.30;59.20;;;;;;6095663;23;20462;-78
2022/09/01 15:26:29;;;;;;;1.50;0.80;;;27.20;59.30;;;;;;6073351;23;20450;-78
2022/09/01 15:29:33;;;;;;;1.50;0.80;;;27.10;59.00;;;;;;6093804;23;21052;-77
2022/09/01 15:32:02;;;;;;;1.47;0.90;;;27.00;59.20;;;;;;6068950;23;20529;-76
2022/09/01 15:34:30;;;;;;;1.40;0.80;;;27.00;59.60;;;;;;6087509;23;20431;-78
2022/09/01 15:36:58;;;;;;;1.47;0.90;;;27.00;59.70;;;;;;6073627;23;20525;-76
2022/09/01 15:39:25;;;;;;;1.60;1.30;;;27.00;59.20;;;;;;6076866;23;20726;-77
2022/09/01 15:42:10;;;;;;;1.50;1.00;;;26.80;59.80;;;;;;6067048;23;20462;-77
2022/09/01 15:44:38;;;;;;;1.40;0.80;;;26.70;59.40;;;;;;6078362;23;20450;-77
2022/09/01 15:47:07;;;;;;;1.40;0.80;;;26.70;59.90;;;;;;6071121;23;20478;-77
2022/09/01 15:49:36;;;;;;;1.43;0.90;;;26.70;59.70;;;;;;6084473;23;20980;-78
2022/09/01 15:52:06;;;;;;;1.43;0.80;;;26.70;59.50;;;;;;6055394;23;20447;-79
2022/09/01 15:54:38;;;;;;;1.50;0.80;;;26.80;59.70;;;;;;6077547;23;20437;-78
2022/09/01 15:57:07;;;;;;;1.43;0.90;;;26.70;59.50;;;;;;6071106;23;20468;-77
2022/09/01 16:03:32;;;;;;;1.50;0.90;;;26.90;59.40;;;;;;6004166;23;20522;-80
2022/09/01 16:13:16;;;;;;;1.40;0.80;;;27.80;58.00;;;;;;5836198;24;20454;-77
2022/09/01 16:16:13;;;;;;;1.60;1.23;;;28.00;57.40;;;;;;5869218;24;20432;-80
2022/09/01 16:22:37;;;;;;;1.47;0.80;;;27.80;55.40;;;;;;6006636;23;20456;-79
2022/09/01 16:25:55;;;;;;;1.50;1.10;;;27.60;56.00;;;;;;6053739;23;20654;-79
2022/09/01 16:35:00;;;;;;;1.50;1.00;;;27.50;56.20;;;;;;6017352;23;20433;-79
2022/09/01 16:41:29;;;;;;;1.50;1.10;;;27.20;56.20;;;;;;5930274;24;21114;-79
2022/09/01 16:47:50;;;;;;;1.43;0.90;;;27.10;57.40;;;;;;5965676;23;20902;-78
2022/09/01 16:50:57;;;;;;;1.47;0.80;;;27.00;57.60;;;;;;6112917;23;20513;-79
2022/09/01 16:54:09;;;;;;;1.47;0.90;;;26.80;57.70;;;;;;6084624;23;20501;-78